sensor_id;sensor_type;location;lat;lon;timestamp;pressure;altitude;pressure_sealevel;temperature;humidity
70304;BME280;57712;48.752;11.348;2022-07-29T00:00:55;97417.88;;;22.29;64.63
70304;BME280;57712;48.752;11.348;2022-07-29T00:03:22;97422.16;;;22.18;65.73
70304;BME280;57712;48.752;11.348;2022-07-29T00:05:49;97419.53;;;22.52;64.71
70304;BME280;57712;48.752;11.348;2022-07-29T00:08:15;97412.34;;;22.40;64.95
70304;BME280;57712;48.752;11.348;2022-07-29T00:10:42;97416.78;;;22.69;64.51
70304;BME280;57712;48.752;11.348;2022-07-29T00:13:08;97407.44;;;22.77;64.21
70304;BME280;57712;48.752;11.348;2022-07-29T00:15:35;97397.38;;;22.37;65.90
70304;BME280;57712;48.752;11.348;2022-07-29T00:18:01;97397.41;;;22.48;65.22
70304;BME280;57712;48.752;11.348;2022-07-29T00:20:28;97400.78;;;22.64;65.05
70304;BME280;57712;48.752;11.348;2022-07-29T00:22:54;97394.72;;;22.82;64.38
70304;BME280;57712;48.752;11.348;2022-07-29T00:25:21;97386.78;;;22.53;65.28
70304;BME280;57712;48.752;11.348;2022-07-29T00:27:47;97389.81;;;22.43;65.35
70304;BME280;57712;48.752;11.348;2022-07-29T00:30:14;97373.91;;;22.77;63.78
70304;BME280;57712;48.752;11.348;2022-07-29T00:32:41;97365.28;;;22.81;64.22
70304;BME280;57712;48.752;11.348;2022-07-29T00:35:08;97361.97;;;22.77;64.15
70304;BME280;57712;48.752;11.348;2022-07-29T00:37:53;97353.66;;;22.94;63.30
70304;BME280;57712;48.752;11.348;2022-07-29T00:40:20;97357.47;;;22.85;63.70
70304;BME280;57712;48.752;11.348;2022-07-29T00:42:50;97337.59;;;22.72;63.24
70304;BME280;57712;48.752;11.348;2022-07-29T00:45:18;97326.94;;;22.76;63.00
70304;BME280;57712;48.752;11.348;2022-07-29T00:47:46;97331.25;;;22.77;63.34
70304;BME280;57712;48.752;11.348;2022-07-29T00:50:13;97329.28;;;22.94;62.51
70304;BME280;57712;48.752;11.348;2022-07-29T00:52:41;97327.50;;;23.02;62.09
70304;BME280;57712;48.752;11.348;2022-07-29T00:55:12;97320.63;;;22.98;62.49
70304;BME280;57712;48.752;11.348;2022-07-29T00:57:40;97312.50;;;22.89;62.79
70304;BME280;57712;48.752;11.348;2022-07-29T01:00:10;97302.09;;;23.00;61.95
70304;BME280;57712;48.752;11.348;2022-07-29T01:02:37;97301.59;;;23.08;61.30
70304;BME280;57712;48.752;11.348;2022-07-29T01:05:04;97297.78;;;23.11;61.11
70304;BME280;57712;48.752;11.348;2022-07-29T01:07:34;97297.28;;;23.07;61.10
70304;BME280;57712;48.752;11.348;2022-07-29T01:10:03;97291.94;;;23.14;60.34
70304;BME280;57712;48.752;11.348;2022-07-29T01:12:30;97298.31;;;23.03;60.58
70304;BME280;57712;48.752;11.348;2022-07-29T01:15:00;97296.00;;;22.85;61.46
70304;BME280;57712;48.752;11.348;2022-07-29T01:31:19;97297.03;;;22.93;61.46
70304;BME280;57712;48.752;11.348;2022-07-29T01:34:01;97298.03;;;23.01;61.02
70304;BME280;57712;48.752;11.348;2022-07-29T01:36:33;97307.19;;;23.08;61.04
70304;BME280;57712;48.752;11.348;2022-07-29T01:39:11;97300.06;;;23.07;60.31
70304;BME280;57712;48.752;11.348;2022-07-29T01:41:49;97300.06;;;22.84;61.10
70304;BME280;57712;48.752;11.348;2022-07-29T01:44:20;97299.72;;;22.43;62.01
70304;BME280;57712;48.752;11.348;2022-07-29T01:46:52;97295.94;;;22.52;62.13
70304;BME280;57712;48.752;11.348;2022-07-29T01:49:25;97295.84;;;22.29;63.54
70304;BME280;57712;48.752;11.348;2022-07-29T01:52:00;97296.97;;;22.71;62.15
70304;BME280;57712;48.752;11.348;2022-07-29T01:54:38;97290.34;;;22.52;62.71
70304;BME280;57712;48.752;11.348;2022-07-29T01:57:14;97276.34;;;22.35;64.10
70304;BME280;57712;48.752;11.348;2022-07-29T01:59:41;97278.66;;;22.59;62.94
70304;BME280;57712;48.752;11.348;2022-07-29T02:02:10;97274.88;;;22.73;62.90
70304;BME280;57712;48.752;11.348;2022-07-29T02:04:39;97280.44;;;21.85;65.81
70304;BME280;57712;48.752;11.348;2022-07-29T02:07:11;97286.06;;;21.91;66.47
70304;BME280;57712;48.752;11.348;2022-07-29T02:09:41;97277.84;;;21.76;67.15
70304;BME280;57712;48.752;11.348;2022-07-29T02:12:09;97268.22;;;21.77;67.20
70304;BME280;57712;48.752;11.348;2022-07-29T02:14:41;97260.47;;;22.04;65.86
70304;BME280;57712;48.752;11.348;2022-07-29T02:17:10;97263.63;;;22.23;65.71
70304;BME280;57712;48.752;11.348;2022-07-29T02:19:39;97270.75;;;21.75;67.65
70304;BME280;57712;48.752;11.348;2022-07-29T02:22:08;97270.34;;;21.94;67.46
70304;BME280;57712;48.752;11.348;2022-07-29T02:24:37;97267.00;;;21.84;67.73
70304;BME280;57712;48.752;11.348;2022-07-29T02:27:07;97275.97;;;22.05;67.32
70304;BME280;57712;48.752;11.348;2022-07-29T02:29:34;97274.97;;;22.08;67.85
70304;BME280;57712;48.752;11.348;2022-07-29T02:32:02;97279.06;;;21.58;69.59
70304;BME280;57712;48.752;11.348;2022-07-29T02:34:30;97280.63;;;21.71;70.23
70304;BME280;57712;48.752;11.348;2022-07-29T02:36:57;97276.47;;;21.55;70.64
70304;BME280;57712;48.752;11.348;2022-07-29T02:39:25;97275.69;;;21.49;70.32
70304;BME280;57712;48.752;11.348;2022-07-29T02:42:05;97284.31;;;21.51;70.15
70304;BME280;57712;48.752;11.348;2022-07-29T02:44:34;97285.84;;;21.52;69.76
70304;BME280;57712;48.752;11.348;2022-07-29T02:50:02;97292.56;;;21.77;68.67
70304;BME280;57712;48.752;11.348;2022-07-29T02:57:59;97304.19;;;22.12;67.19
70304;BME280;57712;48.752;11.348;2022-07-29T03:00:30;97314.41;;;21.78;67.88
70304;BME280;57712;48.752;11.348;2022-07-29T03:02:59;97324.09;;;21.88;67.67
70304;BME280;57712;48.752;11.348;2022-07-29T03:05:27;97317.72;;;21.88;67.74
70304;BME280;57712;48.752;11.348;2022-07-29T03:08:12;97328.91;;;21.94;68.02
70304;BME280;57712;48.752;11.348;2022-07-29T03:10:43;97330.19;;;21.98;67.22
70304;BME280;57712;48.752;11.348;2022-07-29T03:13:12;97337.78;;;21.92;67.52
70304;BME280;57712;48.752;11.348;2022-07-29T03:15:39;97344.91;;;21.99;67.13
70304;BME280;57712;48.752;11.348;2022-07-29T03:18:08;97341.81;;;21.85;68.14
70304;BME280;57712;48.752;11.348;2022-07-29T03:20:37;97343.25;;;22.18;66.80
70304;BME280;57712;48.752;11.348;2022-07-29T03:23:04;97351.16;;;22.25;66.40
70304;BME280;57712;48.752;11.348;2022-07-29T03:25:31;97355.22;;;22.24;66.32
70304;BME280;57712;48.752;11.348;2022-07-29T03:27:57;97350.69;;;22.38;66.71
70304;BME280;57712;48.752;11.348;2022-07-29T03:30:24;97350.47;;;22.41;66.16
70304;BME280;57712;48.752;11.348;2022-07-29T03:32:51;97348.88;;;22.29;66.51
70304;BME280;57712;48.752;11.348;2022-07-29T03:35:19;97352.22;;;22.33;65.99
70304;BME280;57712;48.752;11.348;2022-07-29T03:37:46;97350.69;;;22.32;66.40
70304;BME280;57712;48.752;11.348;2022-07-29T03:40:24;97349.41;;;22.33;66.68
70304;BME280;57712;48.752;11.348;2022-07-29T03:42:53;97345.56;;;22.25;66.55
70304;BME280;57712;48.752;11.348;2022-07-29T03:45:22;97343.28;;;22.29;66.55
70304;BME280;57712;48.752;11.348;2022-07-29T03:47:53;97347.09;;;22.26;66.13
70304;BME280;57712;48.752;11.348;2022-07-29T03:50:27;97339.31;;;22.41;65.83
70304;BME280;57712;48.752;11.348;2022-07-29T03:52:54;97345.38;;;22.45;65.36
70304;BME280;57712;48.752;11.348;2022-07-29T03:55:21;97348.66;;;22.33;66.21
70304;BME280;57712;48.752;11.348;2022-07-29T03:57:49;97342.78;;;22.25;66.66
70304;BME280;57712;48.752;11.348;2022-07-29T04:00:17;97347.63;;;22.30;66.30
70304;BME280;57712;48.752;11.348;2022-07-29T04:02:44;97348.31;;;22.19;66.51
70304;BME280;57712;48.752;11.348;2022-07-29T04:05:15;97346.03;;;22.18;66.40
70304;BME280;57712;48.752;11.348;2022-07-29T04:07:46;97349.34;;;22.16;66.29
70304;BME280;57712;48.752;11.348;2022-07-29T04:10:13;97345.03;;;22.15;66.27
70304;BME280;57712;48.752;11.348;2022-07-29T04:12:41;97340.34;;;21.96;67.45
70304;BME280;57712;48.752;11.348;2022-07-29T04:15:08;97344.84;;;21.87;67.77
70304;BME280;57712;48.752;11.348;2022-07-29T04:17:35;97351.44;;;21.84;67.57
70304;BME280;57712;48.752;11.348;2022-07-29T04:20:03;97348.38;;;21.82;68.11
70304;BME280;57712;48.752;11.348;2022-07-29T04:22:29;97348.91;;;21.86;67.80
70304;BME280;57712;48.752;11.348;2022-07-29T04:24:56;97345.34;;;21.80;68.08
70304;BME280;57712;48.752;11.348;2022-07-29T04:27:29;97354.97;;;21.79;68.36
70304;BME280;57712;48.752;11.348;2022-07-29T04:29:55;97351.41;;;21.79;68.26
70304;BME280;57712;48.752;11.348;2022-07-29T04:32:26;97353.09;;;21.65;68.96
70304;BME280;57712;48.752;11.348;2022-07-29T04:34:53;97353.34;;;21.67;69.23
70304;BME280;57712;48.752;11.348;2022-07-29T04:37:19;97357.75;;;21.79;68.50
70304;BME280;57712;48.752;11.348;2022-07-29T04:39:46;97351.88;;;21.77;68.82
70304;BME280;57712;48.752;11.348;2022-07-29T04:42:12;97352.44;;;21.81;68.72
70304;BME280;57712;48.752;11.348;2022-07-29T04:44:39;97359.03;;;21.84;69.19
70304;BME280;57712;48.752;11.348;2022-07-29T04:47:08;97364.66;;;21.89;68.50
70304;BME280;57712;48.752;11.348;2022-07-29T04:49:37;97361.13;;;21.95;68.60
70304;BME280;57712;48.752;11.348;2022-07-29T04:52:05;97358.69;;;22.08;68.79
70304;BME280;57712;48.752;11.348;2022-07-29T04:54:31;97368.38;;;22.18;67.57
70304;BME280;57712;48.752;11.348;2022-07-29T04:56:58;97362.69;;;22.01;68.35
70304;BME280;57712;48.752;11.348;2022-07-29T04:59:24;97362.78;;;22.18;67.73
70304;BME280;57712;48.752;11.348;2022-07-29T05:01:52;97365.69;;;21.98;68.00
70304;BME280;57712;48.752;11.348;2022-07-29T05:04:19;97364.72;;;22.01;67.79
70304;BME280;57712;48.752;11.348;2022-07-29T05:06:46;97361.31;;;22.23;67.32
70304;BME280;57712;48.752;11.348;2022-07-29T05:09:13;97364.09;;;22.23;67.96
70304;BME280;57712;48.752;11.348;2022-07-29T05:11:39;97359.00;;;22.21;68.01
70304;BME280;57712;48.752;11.348;2022-07-29T05:14:06;97357.78;;;22.33;68.21
70304;BME280;57712;48.752;11.348;2022-07-29T05:16:32;97352.94;;;22.23;68.18
70304;BME280;57712;48.752;11.348;2022-07-29T05:18:59;97358.69;;;22.08;68.66
70304;BME280;57712;48.752;11.348;2022-07-29T05:21:26;97349.84;;;22.09;68.40
70304;BME280;57712;48.752;11.348;2022-07-29T05:23:52;97362.59;;;22.33;67.88
70304;BME280;57712;48.752;11.348;2022-07-29T05:26:19;97359.38;;;22.57;67.21
70304;BME280;57712;48.752;11.348;2022-07-29T05:28:45;97363.38;;;22.33;67.54
70304;BME280;57712;48.752;11.348;2022-07-29T05:31:12;97362.47;;;22.70;66.66
70304;BME280;57712;48.752;11.348;2022-07-29T05:33:41;97362.53;;;22.92;66.53
70304;BME280;57712;48.752;11.348;2022-07-29T05:36:08;97367.56;;;22.77;66.91
70304;BME280;57712;48.752;11.348;2022-07-29T05:38:35;97371.44;;;23.02;66.94
70304;BME280;57712;48.752;11.348;2022-07-29T05:41:02;97368.66;;;23.08;65.41
70304;BME280;57712;48.752;11.348;2022-07-29T05:43:29;97363.84;;;23.14;65.88
70304;BME280;57712;48.752;11.348;2022-07-29T05:45:56;97358.50;;;22.93;64.72
70304;BME280;57712;48.752;11.348;2022-07-29T05:48:23;97368.44;;;23.61;63.96
70304;BME280;57712;48.752;11.348;2022-07-29T05:50:49;97367.91;;;23.24;64.41
70304;BME280;57712;48.752;11.348;2022-07-29T05:53:16;97372.44;;;23.94;64.75
70304;BME280;57712;48.752;11.348;2022-07-29T05:55:47;97367.91;;;23.63;63.67
70304;BME280;57712;48.752;11.348;2022-07-29T05:58:13;97376.81;;;23.73;63.45
70304;BME280;57712;48.752;11.348;2022-07-29T06:00:40;97373.69;;;24.04;62.43
70304;BME280;57712;48.752;11.348;2022-07-29T06:03:06;97368.16;;;23.82;62.68
70304;BME280;57712;48.752;11.348;2022-07-29T06:05:33;97375.31;;;23.60;63.17
70304;BME280;57712;48.752;11.348;2022-07-29T06:07:59;97374.03;;;23.67;62.49
70304;BME280;57712;48.752;11.348;2022-07-29T06:10:26;97376.56;;;23.48;64.53
70304;BME280;57712;48.752;11.348;2022-07-29T06:12:53;97373.50;;;23.74;63.64
70304;BME280;57712;48.752;11.348;2022-07-29T06:15:19;97371.47;;;23.36;63.87
70304;BME280;57712;48.752;11.348;2022-07-29T06:17:46;97369.91;;;23.90;63.77
70304;BME280;57712;48.752;11.348;2022-07-29T06:20:25;97370.47;;;23.78;63.23
70304;BME280;57712;48.752;11.348;2022-07-29T06:22:52;97367.44;;;23.59;62.18
70304;BME280;57712;48.752;11.348;2022-07-29T06:25:19;97364.09;;;23.72;61.63
70304;BME280;57712;48.752;11.348;2022-07-29T06:27:45;97370.56;;;24.36;60.82
70304;BME280;57712;48.752;11.348;2022-07-29T06:30:12;97377.94;;;24.28;60.94
70304;BME280;57712;48.752;11.348;2022-07-29T06:32:39;97368.00;;;24.38;59.36
70304;BME280;57712;48.752;11.348;2022-07-29T06:35:09;97366.19;;;24.46;59.41
70304;BME280;57712;48.752;11.348;2022-07-29T06:37:55;97368.50;;;24.42;58.73
70304;BME280;57712;48.752;11.348;2022-07-29T06:40:25;97363.34;;;24.57;59.79
70304;BME280;57712;48.752;11.348;2022-07-29T06:43:10;97364.47;;;24.84;57.93
70304;BME280;57712;48.752;11.348;2022-07-29T06:45:37;97373.72;;;25.15;57.36
70304;BME280;57712;48.752;11.348;2022-07-29T06:48:07;97363.19;;;24.33;57.64
70304;BME280;57712;48.752;11.348;2022-07-29T06:50:34;97373.59;;;24.90;57.11
70304;BME280;57712;48.752;11.348;2022-07-29T06:53:01;97373.88;;;24.87;58.11
70304;BME280;57712;48.752;11.348;2022-07-29T06:55:27;97371.50;;;25.38;55.25
70304;BME280;57712;48.752;11.348;2022-07-29T06:57:53;97372.94;;;25.50;54.78
70304;BME280;57712;48.752;11.348;2022-07-29T07:00:20;97371.53;;;26.16;53.93
70304;BME280;57712;48.752;11.348;2022-07-29T07:02:47;97373.47;;;26.03;54.30
70304;BME280;57712;48.752;11.348;2022-07-29T07:05:14;97380.19;;;26.18;53.00
70304;BME280;57712;48.752;11.348;2022-07-29T07:07:40;97381.56;;;26.74;50.08
70304;BME280;57712;48.752;11.348;2022-07-29T07:10:07;97385.91;;;26.56;52.62
70304;BME280;57712;48.752;11.348;2022-07-29T07:12:34;97398.38;;;26.12;50.85
70304;BME280;57712;48.752;11.348;2022-07-29T07:15:01;97390.16;;;26.63;49.74
70304;BME280;57712;48.752;11.348;2022-07-29T07:17:27;97387.03;;;26.48;51.17
70304;BME280;57712;48.752;11.348;2022-07-29T07:19:54;97388.88;;;26.83;50.67
70304;BME280;57712;48.752;11.348;2022-07-29T07:22:20;97386.22;;;27.09;52.95
70304;BME280;57712;48.752;11.348;2022-07-29T07:24:47;97385.00;;;27.04;50.43
70304;BME280;57712;48.752;11.348;2022-07-29T07:27:13;97383.78;;;27.19;53.27
70304;BME280;57712;48.752;11.348;2022-07-29T07:29:40;97390.16;;;27.00;49.50
70304;BME280;57712;48.752;11.348;2022-07-29T07:32:09;97381.59;;;26.31;50.52
70304;BME280;57712;48.752;11.348;2022-07-29T07:34:36;97376.34;;;26.65;49.86
70304;BME280;57712;48.752;11.348;2022-07-29T07:37:04;97380.75;;;27.17;49.15
70304;BME280;57712;48.752;11.348;2022-07-29T07:39:31;97379.44;;;27.50;50.71
70304;BME280;57712;48.752;11.348;2022-07-29T07:41:58;97375.22;;;27.43;48.59
70304;BME280;57712;48.752;11.348;2022-07-29T07:44:24;97385.81;;;27.50;47.39
70304;BME280;57712;48.752;11.348;2022-07-29T07:46:51;97381.59;;;27.44;47.74
70304;BME280;57712;48.752;11.348;2022-07-29T07:49:19;97382.22;;;27.37;49.12
70304;BME280;57712;48.752;11.348;2022-07-29T07:51:46;97386.72;;;27.58;50.04
70304;BME280;57712;48.752;11.348;2022-07-29T07:54:16;97383.56;;;27.17;48.91
70304;BME280;57712;48.752;11.348;2022-07-29T07:56:46;97384.59;;;27.32;48.47
70304;BME280;57712;48.752;11.348;2022-07-29T07:59:18;97375.59;;;27.21;48.66
70304;BME280;57712;48.752;11.348;2022-07-29T08:01:45;97384.69;;;27.27;49.09
70304;BME280;57712;48.752;11.348;2022-07-29T08:04:21;97388.06;;;27.71;50.67
70304;BME280;57712;48.752;11.348;2022-07-29T08:06:54;97371.56;;;28.20;47.19
70304;BME280;57712;48.752;11.348;2022-07-29T08:09:21;97376.13;;;28.36;48.08
70304;BME280;57712;48.752;11.348;2022-07-29T08:11:57;97363.81;;;28.87;45.15
70304;BME280;57712;48.752;11.348;2022-07-29T08:14:25;97362.50;;;29.84;45.84
70304;BME280;57712;48.752;11.348;2022-07-29T08:16:51;97360.97;;;29.83;47.08
70304;BME280;57712;48.752;11.348;2022-07-29T08:19:18;97362.34;;;28.19;45.42
70304;BME280;57712;48.752;11.348;2022-07-29T08:21:45;97349.47;;;28.98;43.33
70304;BME280;57712;48.752;11.348;2022-07-29T08:24:11;97358.81;;;28.80;43.80
70304;BME280;57712;48.752;11.348;2022-07-29T08:26:56;97361.88;;;29.78;40.81
70304;BME280;57712;48.752;11.348;2022-07-29T08:29:23;97364.88;;;29.52;41.90
70304;BME280;57712;48.752;11.348;2022-07-29T08:31:49;97363.13;;;29.49;44.90
70304;BME280;57712;48.752;11.348;2022-07-29T08:34:16;97364.88;;;29.52;43.29
70304;BME280;57712;48.752;11.348;2022-07-29T08:36:43;97370.53;;;29.39;42.67
70304;BME280;57712;48.752;11.348;2022-07-29T08:39:15;97370.41;;;29.23;42.72
70304;BME280;57712;48.752;11.348;2022-07-29T08:41:41;97375.19;;;29.70;42.35
70304;BME280;57712;48.752;11.348;2022-07-29T08:44:22;97377.94;;;29.42;43.01
70304;BME280;57712;48.752;11.348;2022-07-29T08:46:56;97375.81;;;28.40;44.16
70304;BME280;57712;48.752;11.348;2022-07-29T08:49:23;97379.41;;;29.01;44.37
70304;BME280;57712;48.752;11.348;2022-07-29T08:51:50;97377.84;;;29.34;46.48
70304;BME280;57712;48.752;11.348;2022-07-29T08:54:18;97373.06;;;28.61;42.62
70304;BME280;57712;48.752;11.348;2022-07-29T08:56:48;97375.88;;;28.61;42.45
70304;BME280;57712;48.752;11.348;2022-07-29T08:59:19;97370.84;;;28.80;43.79
70304;BME280;57712;48.752;11.348;2022-07-29T09:01:48;97372.16;;;28.92;43.72
70304;BME280;57712;48.752;11.348;2022-07-29T09:04:18;97377.72;;;29.19;42.49
70304;BME280;57712;48.752;11.348;2022-07-29T09:06:48;97384.56;;;28.10;44.56
70304;BME280;57712;48.752;11.348;2022-07-29T09:09:15;97379.59;;;29.58;42.01
70304;BME280;57712;48.752;11.348;2022-07-29T09:11:42;97365.94;;;29.70;41.96
70304;BME280;57712;48.752;11.348;2022-07-29T09:14:12;97368.78;;;30.19;42.58
70304;BME280;57712;48.752;11.348;2022-07-29T09:16:55;97364.22;;;29.46;41.42
70304;BME280;57712;48.752;11.348;2022-07-29T09:19:27;97364.75;;;29.86;37.87
70304;BME280;57712;48.752;11.348;2022-07-29T09:21:56;97362.84;;;30.66;38.76
70304;BME280;57712;48.752;11.348;2022-07-29T09:27:09;97362.09;;;29.59;40.41
70304;BME280;57712;48.752;11.348;2022-07-29T09:29:36;97363.50;;;28.77;39.39
70304;BME280;57712;48.752;11.348;2022-07-29T09:32:08;97356.50;;;29.25;40.94
70304;BME280;57712;48.752;11.348;2022-07-29T09:34:36;97346.19;;;29.49;40.50
70304;BME280;57712;48.752;11.348;2022-07-29T09:37:03;97349.28;;;29.38;40.83
70304;BME280;57712;48.752;11.348;2022-07-29T09:39:35;97354.72;;;29.36;39.12
70304;BME280;57712;48.752;11.348;2022-07-29T09:42:04;97353.38;;;28.95;39.99
70304;BME280;57712;48.752;11.348;2022-07-29T09:44:51;97355.91;;;29.40;38.42
70304;BME280;57712;48.752;11.348;2022-07-29T09:47:18;97353.38;;;30.28;37.58
70304;BME280;57712;48.752;11.348;2022-07-29T09:52:19;97356.31;;;30.14;36.05
70304;BME280;57712;48.752;11.348;2022-07-29T09:54:46;97357.00;;;30.72;36.40
70304;BME280;57712;48.752;11.348;2022-07-29T09:57:28;97361.75;;;30.85;35.74
70304;BME280;57712;48.752;11.348;2022-07-29T09:59:59;97359.09;;;30.79;35.33
70304;BME280;57712;48.752;11.348;2022-07-29T10:02:30;97351.44;;;31.02;35.22
70304;BME280;57712;48.752;11.348;2022-07-29T10:04:58;97345.88;;;31.64;35.12
70304;BME280;57712;48.752;11.348;2022-07-29T10:07:25;97348.75;;;30.89;36.02
70304;BME280;57712;48.752;11.348;2022-07-29T10:09:57;97348.13;;;31.73;36.40
70304;BME280;57712;48.752;11.348;2022-07-29T10:12:24;97344.72;;;31.67;36.66
70304;BME280;57712;48.752;11.348;2022-07-29T10:14:51;97350.84;;;30.53;38.21
70304;BME280;57712;48.752;11.348;2022-07-29T10:17:18;97352.78;;;30.58;38.00
70304;BME280;57712;48.752;11.348;2022-07-29T10:19:45;97340.75;;;31.47;37.46
70304;BME280;57712;48.752;11.348;2022-07-29T10:22:13;97338.97;;;30.46;36.88
70304;BME280;57712;48.752;11.348;2022-07-29T10:24:40;97349.47;;;30.74;37.28
70304;BME280;57712;48.752;11.348;2022-07-29T10:27:08;97354.53;;;31.27;36.22
70304;BME280;57712;48.752;11.348;2022-07-29T10:29:35;97345.56;;;30.49;37.57
70304;BME280;57712;48.752;11.348;2022-07-29T10:40:37;97332.56;;;31.05;39.87
70304;BME280;57712;48.752;11.348;2022-07-29T10:43:29;97337.56;;;31.58;36.70
70304;BME280;57712;48.752;11.348;2022-07-29T10:45:59;97327.28;;;31.01;37.79
70304;BME280;57712;48.752;11.348;2022-07-29T10:48:26;97333.38;;;31.74;36.10
70304;BME280;57712;48.752;11.348;2022-07-29T10:51:03;97332.63;;;32.67;34.31
70304;BME280;57712;48.752;11.348;2022-07-29T10:53:50;97335.03;;;31.09;36.21
70304;BME280;57712;48.752;11.348;2022-07-29T10:56:28;97338.31;;;31.28;36.52
70304;BME280;57712;48.752;11.348;2022-07-29T11:01:50;97324.53;;;31.93;34.80
70304;BME280;57712;48.752;11.348;2022-07-29T11:07:12;97323.84;;;30.80;39.05
70304;BME280;57712;48.752;11.348;2022-07-29T11:09:40;97312.16;;;32.77;35.10
70304;BME280;57712;48.752;11.348;2022-07-29T11:15:09;97323.19;;;31.56;35.52
70304;BME280;57712;48.752;11.348;2022-07-29T11:20:36;97321.00;;;30.36;37.59
70304;BME280;57712;48.752;11.348;2022-07-29T11:23:31;97309.53;;;30.93;38.15
70304;BME280;57712;48.752;11.348;2022-07-29T11:34:29;97308.47;;;31.27;36.11
70304;BME280;57712;48.752;11.348;2022-07-29T11:39:33;97310.53;;;30.60;36.35
70304;BME280;57712;48.752;11.348;2022-07-29T11:47:59;97301.41;;;30.02;35.91
70304;BME280;57712;48.752;11.348;2022-07-29T11:50:46;97301.38;;;30.82;34.62
70304;BME280;57712;48.752;11.348;2022-07-29T11:53:14;97305.84;;;31.29;33.15
70304;BME280;57712;48.752;11.348;2022-07-29T11:55:41;97303.56;;;31.58;31.98
70304;BME280;57712;48.752;11.348;2022-07-29T11:58:28;97297.22;;;30.24;32.56
70304;BME280;57712;48.752;11.348;2022-07-29T12:00:56;97302.38;;;31.99;31.57
70304;BME280;57712;48.752;11.348;2022-07-29T12:03:25;97297.88;;;31.66;31.54
70304;BME280;57712;48.752;11.348;2022-07-29T12:06:01;97294.13;;;31.25;32.24
70304;BME280;57712;48.752;11.348;2022-07-29T12:08:28;97286.56;;;31.81;32.70
70304;BME280;57712;48.752;11.348;2022-07-29T12:10:55;97279.94;;;32.49;32.10
70304;BME280;57712;48.752;11.348;2022-07-29T12:13:22;97274.69;;;31.59;33.86
70304;BME280;57712;48.752;11.348;2022-07-29T12:16:03;97282.03;;;31.78;33.52
70304;BME280;57712;48.752;11.348;2022-07-29T12:18:30;97283.72;;;30.45;34.93
70304;BME280;57712;48.752;11.348;2022-07-29T12:20:59;97284.19;;;30.65;34.68
70304;BME280;57712;48.752;11.348;2022-07-29T12:23:29;97280.72;;;30.43;35.89
70304;BME280;57712;48.752;11.348;2022-07-29T12:26:00;97288.84;;;30.11;35.66
70304;BME280;57712;48.752;11.348;2022-07-29T12:28:27;97285.25;;;29.32;37.11
70304;BME280;57712;48.752;11.348;2022-07-29T12:30:53;97280.47;;;29.98;36.51
70304;BME280;57712;48.752;11.348;2022-07-29T12:33:24;97274.38;;;29.86;37.06
70304;BME280;57712;48.752;11.348;2022-07-29T12:36:00;97279.22;;;30.50;36.51
70304;BME280;57712;48.752;11.348;2022-07-29T12:38:33;97273.53;;;29.70;37.35
70304;BME280;57712;48.752;11.348;2022-07-29T12:41:01;97261.63;;;30.95;37.30
70304;BME280;57712;48.752;11.348;2022-07-29T12:43:29;97272.97;;;31.18;35.03
70304;BME280;57712;48.752;11.348;2022-07-29T12:45:57;97268.00;;;30.81;33.19
70304;BME280;57712;48.752;11.348;2022-07-29T12:48:34;97267.66;;;31.15;33.49
70304;BME280;57712;48.752;11.348;2022-07-29T12:51:02;97261.44;;;30.86;34.84
70304;BME280;57712;48.752;11.348;2022-07-29T12:53:29;97264.59;;;30.67;34.70
70304;BME280;57712;48.752;11.348;2022-07-29T12:55:57;97263.25;;;30.16;33.89
70304;BME280;57712;48.752;11.348;2022-07-29T13:01:05;97259.94;;;29.97;34.27
70304;BME280;57712;48.752;11.348;2022-07-29T13:03:46;97267.56;;;29.53;37.85
70304;BME280;57712;48.752;11.348;2022-07-29T13:09:21;97265.19;;;29.65;38.86
70304;BME280;57712;48.752;11.348;2022-07-29T13:11:51;97263.28;;;30.76;37.37
70304;BME280;57712;48.752;11.348;2022-07-29T13:14:38;97280.25;;;30.83;36.71
70304;BME280;57712;48.752;11.348;2022-07-29T13:17:14;97274.28;;;31.55;36.14
70304;BME280;57712;48.752;11.348;2022-07-29T13:19:49;97266.56;;;31.18;38.12
70304;BME280;57712;48.752;11.348;2022-07-29T13:22:23;97267.09;;;31.09;36.52
70304;BME280;57712;48.752;11.348;2022-07-29T13:24:53;97252.00;;;31.14;36.88
70304;BME280;57712;48.752;11.348;2022-07-29T13:27:28;97265.19;;;30.81;37.05
70304;BME280;57712;48.752;11.348;2022-07-29T13:29:57;97279.19;;;30.42;37.72
70304;BME280;57712;48.752;11.348;2022-07-29T13:32:25;97271.00;;;29.59;39.79
70304;BME280;57712;48.752;11.348;2022-07-29T13:34:58;97264.09;;;29.18;40.91
70304;BME280;57712;48.752;11.348;2022-07-29T13:37:26;97266.53;;;29.43;40.38
70304;BME280;57712;48.752;11.348;2022-07-29T13:39:56;97258.06;;;30.00;38.34
70304;BME280;57712;48.752;11.348;2022-07-29T13:42:23;97266.44;;;30.13;38.19
70304;BME280;57712;48.752;11.348;2022-07-29T13:44:50;97253.22;;;29.79;38.04
70304;BME280;57712;48.752;11.348;2022-07-29T13:47:21;97253.28;;;29.87;38.88
70304;BME280;57712;48.752;11.348;2022-07-29T13:49:59;97250.81;;;29.55;39.84
70304;BME280;57712;48.752;11.348;2022-07-29T13:52:25;97251.91;;;30.09;39.31
70304;BME280;57712;48.752;11.348;2022-07-29T13:54:52;97251.72;;;30.07;39.54
70304;BME280;57712;48.752;11.348;2022-07-29T13:57:19;97243.88;;;29.56;40.68
70304;BME280;57712;48.752;11.348;2022-07-29T13:59:45;97242.66;;;29.72;40.78
70304;BME280;57712;48.752;11.348;2022-07-29T14:02:18;97245.75;;;29.32;41.60
70304;BME280;57712;48.752;11.348;2022-07-29T14:04:45;97248.81;;;29.92;40.42
70304;BME280;57712;48.752;11.348;2022-07-29T14:07:11;97238.81;;;30.27;39.60
70304;BME280;57712;48.752;11.348;2022-07-29T14:09:42;97245.69;;;29.74;40.67
70304;BME280;57712;48.752;11.348;2022-07-29T14:12:08;97243.72;;;29.12;41.84